Time;durP1;ratioP1;P1;durP2;ratioP2;P2;SDS_P1;SDS_P2;PMS_P1;PMS_P2;Temp;Humidity;BMP_temperature;BMP_pressure;BME280_temperature;BME280_humidity;BME280_pressure;Samples;Min_cycle;Max_cycle;Signal;HPM_P1;HPM_P2
2021/01/10 00:00:06;;;;;;;58.50;27.15;;;25.80;2201.60;;;;;;5007963;28;20435;-73
2021/01/10 00:02:32;;;;;;;53.45;25.90;;;25.80;2201.60;;;;;;5013341;28;20045;-75
2021/01/10 00:04:58;;;;;;;59.67;27.20;;;25.80;2201.60;;;;;;5013963;28;20331;-75
2021/01/10 00:07:24;;;;;;;56.08;27.40;;;25.80;2201.60;;;;;;5013943;28;20049;-74
2021/01/10 00:09:50;;;;;;;51.60;25.55;;;25.90;2201.60;;;;;;5013326;28;20026;-74
2021/01/10 00:12:21;;;;;;;56.85;28.38;;;25.90;2201.60;;;;;;5012039;28;20407;-75
2021/01/10 00:14:47;;;;;;;56.80;27.67;;;25.80;2201.60;;;;;;5002988;28;20025;-74
2021/01/10 00:17:14;;;;;;;57.28;28.15;;;25.80;2201.60;;;;;;5002351;28;20019;-73
2021/01/10 00:19:42;;;;;;;57.70;27.08;;;25.80;2201.60;;;;;;5007160;28;20044;-73
2021/01/10 00:22:19;;;;;;;63.67;29.63;;;25.80;2201.60;;;;;;5009763;28;20022;-74
2021/01/10 00:24:46;;;;;;;55.47;26.13;;;25.80;2201.60;;;;;;5009549;28;20382;-74
2021/01/10 00:27:16;;;;;;;48.30;24.80;;;25.80;2201.60;;;;;;5007975;28;20028;-73
2021/01/10 00:29:45;;;;;;;48.55;23.30;;;25.80;2201.60;;;;;;5007807;28;20412;-74
2021/01/10 00:32:11;;;;;;;;;;;25.90;2201.60;;;;;;5007953;28;20077;-74
2021/01/10 00:34:37;;;;;;;48.92;23.95;;;25.90;2201.60;;;;;;5008336;28;19913;-75
2021/01/10 00:37:14;;;;;;;49.40;23.80;;;25.80;2201.60;;;;;;5008986;28;20022;-74
2021/01/10 00:39:41;;;;;;;48.63;23.15;;;25.80;2201.60;;;;;;5018319;28;20117;-74
2021/01/10 00:42:08;;;;;;;45.67;23.52;;;25.80;2201.60;;;;;;5018845;28;20108;-73
2021/01/10 00:44:35;;;;;;;40.92;20.50;;;25.90;2201.60;;;;;;5018556;28;20411;-73
2021/01/10 00:47:00;;;;;;;45.38;23.58;;;25.90;2201.60;;;;;;5017975;28;20029;-74
2021/01/10 00:49:26;;;;;;;45.95;22.73;;;25.80;2201.60;;;;;;5018456;28;20467;-73
2021/01/10 00:51:53;;;;;;;51.33;24.23;;;25.90;2201.60;;;;;;5018092;28;20034;-75
2021/01/10 00:54:19;;;;;;;45.60;23.30;;;25.90;2201.60;;;;;;5017795;28;20030;-74
2021/01/10 00:56:45;;;;;;;39.92;21.55;;;25.80;2201.60;;;;;;5018402;28;20411;-74
2021/01/10 00:59:11;;;;;;;44.53;23.05;;;25.80;2201.60;;;;;;5018318;28;20068;-73
2021/01/10 01:01:37;;;;;;;45.50;22.77;;;25.80;2201.60;;;;;;5017726;28;20026;-74
2021/01/10 01:04:02;;;;;;;41.95;21.52;;;25.90;2201.60;;;;;;5018197;28;20347;-74
2021/01/10 01:06:28;;;;;;;43.25;21.75;;;25.90;2201.60;;;;;;4997838;28;20074;-73
2021/01/10 01:08:54;;;;;;;45.05;22.05;;;25.90;2201.60;;;;;;4995772;28;20034;-74
2021/01/10 01:11:33;;;;;;;40.75;20.00;;;26.00;2201.60;;;;;;4996474;28;20032;-74
2021/01/10 01:13:59;;;;;;;40.45;21.65;;;26.00;2201.60;;;;;;4995960;28;20038;-74
2021/01/10 01:16:25;;;;;;;38.42;20.23;;;26.00;2201.60;;;;;;4978535;28;20031;-74
2021/01/10 01:18:51;;;;;;;39.40;21.17;;;26.00;2201.60;;;;;;4995677;28;20026;-74
2021/01/10 01:21:18;;;;;;;37.17;20.02;;;26.00;2201.60;;;;;;4996256;28;20026;-73
2021/01/10 01:23:44;;;;;;;39.10;20.35;;;25.90;2201.60;;;;;;4996093;28;20038;-73
2021/01/10 01:26:20;;;;;;;36.60;19.45;;;25.90;2201.60;;;;;;4995644;28;20037;-75
2021/01/10 01:28:47;;;;;;;38.85;21.38;;;25.90;2201.60;;;;;;4995842;28;20116;-73
2021/01/10 01:31:14;;;;;;;38.15;19.90;;;25.90;2201.60;;;;;;4995370;28;20345;-74
2021/01/10 01:33:41;;;;;;;34.85;18.77;;;25.90;2201.60;;;;;;4995515;28;20030;-75
2021/01/10 01:36:27;;;;;;;37.08;19.52;;;25.90;2201.60;;;;;;4995347;28;20026;-73
2021/01/10 01:38:57;;;;;;;37.10;19.17;;;26.00;2201.60;;;;;;4996160;28;20087;-73
2021/01/10 01:41:24;;;;;;;36.15;19.33;;;26.00;2201.60;;;;;;4995753;28;20447;-74
2021/01/10 01:43:50;;;;;;;32.00;19.13;;;26.10;2201.60;;;;;;4995998;28;20528;-74
2021/01/10 01:46:30;;;;;;;33.95;18.77;;;26.00;2201.60;;;;;;4995373;28;20062;-74
2021/01/10 01:48:57;;;;;;;36.50;20.27;;;26.10;2201.60;;;;;;4995434;28;20034;-74
2021/01/10 01:51:25;;;;;;;36.88;19.77;;;26.10;2201.60;;;;;;4995972;28;20022;-74
2021/01/10 01:53:51;;;;;;;35.50;18.15;;;26.00;2201.60;;;;;;4995142;28;20030;-74
2021/01/10 01:56:17;;;;;;;34.13;18.40;;;26.00;2201.60;;;;;;4995640;28;20027;-74
2021/01/10 01:59:12;;;;;;;36.03;20.60;;;26.00;2201.60;;;;;;4995788;28;20114;-73
2021/01/10 02:01:38;;;;;;;40.22;19.95;;;26.00;2201.60;;;;;;4934928;29;20040;-74
2021/01/10 02:04:28;;;;;;;39.33;20.80;;;25.90;2201.60;;;;;;4934969;29;20035;-73
2021/01/10 02:07:04;;;;;;;38.25;19.27;;;25.90;2201.60;;;;;;4934810;29;20059;-74
2021/01/10 02:09:31;;;;;;;36.83;19.30;;;25.90;2201.60;;;;;;4935379;29;20038;-73
2021/01/10 02:12:02;;;;;;;36.17;19.20;;;25.90;2201.60;;;;;;4935106;29;20228;-73
2021/01/10 02:14:32;;;;;;;35.78;19.65;;;25.90;2201.60;;;;;;4935145;29;20407;-73
2021/01/10 02:16:58;;;;;;;39.80;19.77;;;25.90;2201.60;;;;;;4934351;29;20063;-74
2021/01/10 02:19:35;;;;;;;40.33;21.20;;;26.00;2201.60;;;;;;4935279;29;20050;-74
2021/01/10 02:22:05;;;;;;;37.38;19.92;;;26.00;2201.60;;;;;;4935306;29;20039;-74
2021/01/10 02:24:33;;;;;;;38.10;19.95;;;26.00;2201.60;;;;;;4934973;29;20040;-74
2021/01/10 02:27:03;;;;;;;35.63;19.20;;;25.90;2201.60;;;;;;4934877;29;20091;-74
2021/01/10 02:29:29;;;;;;;40.38;20.90;;;25.90;2201.60;;;;;;4934880;29;20117;-75
2021/01/10 02:31:57;;;;;;;44.65;22.15;;;25.90;2201.60;;;;;;4934847;29;20118;-74
2021/01/10 02:34:24;;;;;;;44.83;22.02;;;25.90;2201.60;;;;;;4935079;29;20429;-77
2021/01/10 02:37:10;;;;;;;39.10;22.15;;;25.90;2201.60;;;;;;4935650;28;20434;-75
2021/01/10 02:40:10;;;;;;;39.10;21.27;;;26.00;2201.60;;;;;;4995080;28;20030;-73
2021/01/10 02:42:58;;;;;;;36.97;19.42;;;26.00;2201.60;;;;;;4969439;28;20503;-73
2021/01/10 02:45:25;;;;;;;36.38;20.88;;;26.00;2201.60;;;;;;4995003;28;20452;-74
2021/01/10 02:47:51;;;;;;;36.15;19.40;;;26.00;2201.60;;;;;;4995187;28;20029;-74
2021/01/10 02:50:17;;;;;;;38.28;18.55;;;26.10;2201.60;;;;;;4995166;28;20026;-74
2021/01/10 02:52:47;;;;;;;38.65;19.40;;;26.10;2201.60;;;;;;4994976;28;20057;-74
2021/01/10 02:55:13;;;;;;;41.50;22.05;;;26.00;2201.60;;;;;;4994834;28;20451;-74
2021/01/10 02:57:41;;;;;;;39.20;21.55;;;26.10;2201.60;;;;;;4996662;28;20404;-74
2021/01/10 03:00:08;;;;;;;41.95;21.63;;;26.10;2201.60;;;;;;4998300;28;20030;-74
2021/01/10 03:02:35;;;;;;;39.55;21.45;;;26.00;2201.60;;;;;;4998991;28;20028;-74
2021/01/10 03:05:04;;;;;;;37.78;19.90;;;26.00;2201.60;;;;;;4998397;28;20041;-75
2021/01/10 03:07:31;;;;;;;37.45;19.55;;;26.10;2201.60;;;;;;4998666;28;20058;-74
2021/01/10 03:09:58;;;;;;;39.72;20.48;;;26.00;2201.60;;;;;;4998731;28;20034;-74
2021/01/10 03:12:27;;;;;;;40.28;20.35;;;26.00;2201.60;;;;;;4998692;28;20121;-74
2021/01/10 03:14:58;;;;;;;39.17;21.13;;;25.90;2201.60;;;;;;4997895;28;20486;-74
2021/01/10 03:17:39;;;;;;;41.38;19.27;;;25.90;2201.60;;;;;;4997780;28;20034;-74
2021/01/10 03:20:07;;;;;;;43.92;22.20;;;25.80;2201.60;;;;;;4998153;28;20054;-74
2021/01/10 03:22:33;;;;;;;39.80;21.15;;;25.90;2201.60;;;;;;4998169;28;20109;-75
2021/01/10 03:24:59;;;;;;;40.53;20.85;;;25.90;2201.60;;;;;;4998421;28;20116;-74
2021/01/10 03:27:25;;;;;;;43.15;21.38;;;25.80;2201.60;;;;;;4998016;28;20030;-74
2021/01/10 03:29:51;;;;;;;44.85;20.60;;;25.80;2201.60;;;;;;4997821;28;20404;-74
2021/01/10 03:32:17;;;;;;;44.55;22.48;;;25.80;2201.60;;;;;;4998061;28;20041;-74
2021/01/10 03:34:43;;;;;;;46.03;23.08;;;25.80;2201.60;;;;;;4997797;28;20030;-74
2021/01/10 03:37:09;;;;;;;45.05;23.27;;;25.90;2201.60;;;;;;4997969;28;20419;-74
2021/01/10 03:39:35;;;;;;;42.92;20.75;;;25.90;2201.60;;;;;;4997346;28;20038;-73
2021/01/10 03:42:01;;;;;;;43.00;22.75;;;25.90;2201.60;;;;;;4997780;28;20034;-73
2021/01/10 03:44:27;;;;;;;40.17;20.98;;;25.90;2201.60;;;;;;4997806;28;20030;-74
2021/01/10 03:46:53;;;;;;;42.05;21.25;;;25.90;2201.60;;;;;;4997632;28;20057;-74
2021/01/10 03:49:19;;;;;;;45.80;22.48;;;25.80;2201.60;;;;;;5008172;28;20038;-75
2021/01/10 03:51:45;;;;;;;38.70;20.45;;;25.80;2201.60;;;;;;5017744;28;20096;-73
2021/01/10 03:54:11;;;;;;;38.53;20.40;;;25.90;2201.60;;;;;;5017249;28;20408;-73
2021/01/10 03:56:37;;;;;;;38.58;20.08;;;26.00;2201.60;;;;;;5016992;28;20065;-75
2021/01/10 03:59:02;;;;;;;40.40;19.88;;;25.90;2201.60;;;;;;5017041;28;20410;-74
2021/01/10 04:01:28;;;;;;;39.92;20.70;;;25.90;2201.60;;;;;;5016829;28;20125;-73
2021/01/10 04:03:54;;;;;;;36.88;18.95;;;26.00;2201.60;;;;;;5017163;28;20331;-73
2021/01/10 04:06:20;;;;;;;35.95;18.38;;;26.00;2201.60;;;;;;5016846;28;20061;-74
2021/01/10 04:08:46;;;;;;;34.85;18.73;;;26.10;2201.60;;;;;;5016288;28;20414;-73
2021/01/10 04:11:13;;;;;;;33.17;18.73;;;26.00;2201.60;;;;;;5016696;28;20034;-74
2021/01/10 04:13:40;;;;;;;32.95;17.50;;;26.10;2201.60;;;;;;5017299;28;20422;-74
2021/01/10 04:16:06;;;;;;;34.33;18.35;;;26.20;2201.60;;;;;;5016788;28;20410;-74
2021/01/10 04:18:32;;;;;;;35.67;19.13;;;26.20;2201.60;;;;;;5016765;28;20025;-74
2021/01/10 04:20:58;;;;;;;33.70;18.15;;;26.20;2201.60;;;;;;5017114;28;20025;-75
2021/01/10 04:23:23;;;;;;;34.25;18.27;;;26.10;2201.60;;;;;;5016243;28;20332;-74
2021/01/10 04:25:49;;;;;;;34.53;18.52;;;26.20;2201.60;;;;;;5016681;28;20037;-73
2021/01/10 04:28:16;;;;;;;32.88;17.45;;;26.20;2201.60;;;;;;5016945;28;20033;-74
2021/01/10 04:30:42;;;;;;;32.03;17.45;;;26.10;2201.60;;;;;;5016258;28;20111;-74
2021/01/10 04:33:08;;;;;;;30.90;17.10;;;26.20;2201.60;;;;;;5017113;28;20100;-74
2021/01/10 04:35:34;;;;;;;33.85;17.40;;;26.10;2201.60;;;;;;5016846;28;20475;-74
2021/01/10 04:37:59;;;;;;;32.00;17.67;;;26.10;2201.60;;;;;;5016461;28;20454;-73
2021/01/10 04:40:26;;;;;;;33.40;16.83;;;26.10;2201.60;;;;;;5016392;28;20034;-73
2021/01/10 04:42:53;;;;;;;32.55;17.67;;;26.10;2201.60;;;;;;5016653;28;20034;-74
2021/01/10 04:45:20;;;;;;;30.30;16.85;;;26.10;2201.60;;;;;;5016201;28;20168;-73
2021/01/10 04:47:46;;;;;;;30.42;16.30;;;26.10;2201.60;;;;;;5016532;28;20104;-75
2021/01/10 04:50:13;;;;;;;29.98;17.02;;;26.00;2201.60;;;;;;5015766;28;20587;-73
2021/01/10 04:52:41;;;;;;;29.67;16.73;;;26.00;2201.60;;;;;;5015754;28;20164;-73
2021/01/10 04:55:08;;;;;;;31.08;16.70;;;26.00;2201.60;;;;;;5016174;28;20434;-74
2021/01/10 04:57:34;;;;;;;31.55;17.20;;;26.10;2201.60;;;;;;5016175;28;20085;-75
2021/01/10 05:00:12;;;;;;;30.40;16.15;;;26.10;2201.60;;;;;;4998072;28;20037;-74
2021/01/10 05:03:05;;;;;;;30.23;16.15;;;26.10;2201.60;;;;;;5016544;28;20374;-73
2021/01/10 05:05:37;;;;;;;26.75;14.43;;;26.10;2201.60;;;;;;5007625;28;20026;-75
2021/01/10 05:08:07;;;;;;;27.90;15.15;;;26.00;2201.60;;;;;;4998420;28;20033;-74
2021/01/10 05:10:33;;;;;;;29.80;16.13;;;26.00;2201.60;;;;;;4998868;28;20030;-73
2021/01/10 05:12:59;;;;;;;32.28;15.85;;;26.00;2201.60;;;;;;4998159;28;20037;-74
2021/01/10 05:15:25;;;;;;;36.80;18.30;;;26.00;2201.60;;;;;;4998155;28;20038;-73
2021/01/10 05:17:58;;;;;;;31.80;17.05;;;26.00;2201.60;;;;;;4998692;28;20034;-73
2021/01/10 05:20:31;;;;;;;35.03;17.27;;;26.00;2201.60;;;;;;4997700;28;20026;-73
2021/01/10 05:23:00;;;;;;;34.70;18.48;;;26.00;2201.60;;;;;;4998691;28;20125;-74
2021/01/10 05:25:29;;;;;;;;;;;26.00;2201.60;;;;;;4998681;28;20053;-74
2021/01/10 05:27:57;;;;;;;27.05;15.35;;;26.00;2201.60;;;;;;4997532;28;20212;-75
2021/01/10 05:30:33;;;;;;;31.33;17.02;;;26.10;2201.60;;;;;;4997997;28;20032;-73
2021/01/10 05:33:08;;;;;;;29.55;15.88;;;26.20;2201.60;;;;;;4997999;28;20034;-74
2021/01/10 05:35:54;;;;;;;31.50;15.95;;;26.20;2201.60;;;;;;4998420;28;20037;-74
2021/01/10 05:38:31;;;;;;;32.05;17.65;;;26.20;2201.60;;;;;;4997558;28;20018;-75
2021/01/10 05:40:59;;;;;;;33.83;17.58;;;26.20;2201.60;;;;;;4998087;28;20030;-74
2021/01/10 05:43:26;;;;;;;31.88;17.20;;;26.10;2201.60;;;;;;4997998;28;20026;-75
2021/01/10 05:45:52;;;;;;;26.00;15.43;;;26.10;2201.60;;;;;;4998056;28;20030;-75
2021/01/10 05:48:19;;;;;;;29.80;15.68;;;26.10;2201.60;;;;;;4997709;28;20475;-73
2021/01/10 05:50:50;;;;;;;33.13;17.30;;;26.10;2201.60;;;;;;4997606;28;20030;-74
2021/01/10 05:53:23;;;;;;;31.02;16.50;;;26.00;2201.60;;;;;;4997810;28;20034;-74
2021/01/10 05:55:56;;;;;;;31.23;16.63;;;26.00;2201.60;;;;;;4998213;28;20104;-75
2021/01/10 05:58:26;;;;;;;31.75;15.82;;;25.90;2201.60;;;;;;4998175;28;20030;-74
2021/01/10 06:00:52;;;;;;;35.53;17.02;;;25.90;2201.60;;;;;;4997803;28;20050;-74
2021/01/10 06:03:20;;;;;;;36.67;18.05;;;25.80;2201.60;;;;;;4998093;28;20066;-75
2021/01/10 06:06:12;;;;;;;35.97;17.87;;;25.80;2201.60;;;;;;4997388;28;20153;-73
2021/01/10 06:08:40;;;;;;;36.50;17.65;;;25.70;2201.60;;;;;;4992447;28;20046;-74
2021/01/10 06:11:36;;;;;;;36.95;17.50;;;25.80;2201.60;;;;;;4997750;28;20331;-73
2021/01/10 06:14:04;;;;;;;36.88;18.10;;;25.80;2201.60;;;;;;4899748;29;20051;-74
2021/01/10 06:16:34;;;;;;;32.78;17.48;;;25.80;2201.60;;;;;;4899724;29;20036;-73
2021/01/10 06:19:01;;;;;;;32.85;16.92;;;25.90;2201.60;;;;;;4899887;29;20040;-73
2021/01/10 06:21:29;;;;;;;34.30;18.20;;;26.00;2201.60;;;;;;4899717;29;20454;-74
2021/01/10 06:24:02;;;;;;;33.60;17.88;;;26.00;2201.60;;;;;;4899085;29;20040;-75
2021/01/10 06:26:31;;;;;;;32.63;16.75;;;26.00;2201.60;;;;;;4899946;29;20123;-72
2021/01/10 06:28:59;;;;;;;33.10;18.08;;;26.00;2201.60;;;;;;4899632;29;20028;-73
2021/01/10 06:31:30;;;;;;;36.17;18.63;;;26.00;2201.60;;;;;;4901064;29;20129;-73
2021/01/10 06:34:00;;;;;;;36.25;18.50;;;26.10;2201.60;;;;;;4903629;29;20044;-74
2021/01/10 06:36:28;;;;;;;37.65;19.75;;;26.20;2201.60;;;;;;4903198;29;20080;-73
2021/01/10 06:39:13;;;;;;;34.00;17.95;;;26.40;2201.60;;;;;;4902995;29;20024;-74
2021/01/10 06:41:57;;;;;;;38.85;19.35;;;26.40;2201.60;;;;;;4903538;29;20334;-74
2021/01/10 06:44:23;;;;;;;36.60;18.95;;;26.40;2201.60;;;;;;4903104;29;20036;-73
2021/01/10 06:46:54;;;;;;;37.67;20.00;;;51.20;2227.20;;;;;;4903076;29;20081;-74
2021/01/10 06:49:21;;;;;;;37.83;19.20;;;51.30;2227.20;;;;;;4910478;28;20028;-76
2021/01/10 06:51:51;;;;;;;40.35;20.08;;;51.30;2227.20;;;;;;5001076;28;20026;-74
2021/01/10 06:54:17;;;;;;;43.80;20.88;;;51.40;2227.20;;;;;;5001420;28;20037;-73
2021/01/10 06:56:53;;;;;;;42.05;20.23;;;51.30;2227.20;;;;;;5000723;28;20030;-75
2021/01/10 06:59:26;;;;;;;41.45;20.83;;;51.30;2227.20;;;;;;5001652;28;20027;-73
2021/01/10 07:01:51;;;;;;;46.70;22.55;;;51.20;2227.20;;;;;;5000912;28;20076;-74
2021/01/10 07:04:22;;;;;;;44.33;21.75;;;51.20;2227.20;;;;;;5000442;28;20424;-74
2021/01/10 07:06:50;;;;;;;44.53;23.63;;;51.40;2227.20;;;;;;5001113;28;20050;-74
2021/01/10 07:09:17;;;;;;;41.05;20.60;;;51.50;2227.20;;;;;;5001124;28;20034;-73
2021/01/10 07:11:45;;;;;;;38.78;19.48;;;51.60;2227.20;;;;;;5000479;28;20030;-74
2021/01/10 07:14:13;;;;;;;39.97;18.35;;;51.50;2227.20;;;;;;5000611;28;20035;-74
2021/01/10 07:16:44;;;;;;;36.92;18.67;;;51.40;2227.20;;;;;;5000694;28;20023;-74
2021/01/10 07:19:11;;;;;;;37.60;18.15;;;51.40;2227.20;;;;;;5000095;28;20121;-73
2021/01/10 07:21:48;;;;;;;39.42;18.70;;;51.40;2227.20;;;;;;5000475;28;20029;-75
2021/01/10 07:24:17;;;;;;;33.00;17.60;;;51.50;2227.20;;;;;;5000573;28;20112;-75
2021/01/10 07:26:48;;;;;;;45.63;19.40;;;51.60;2227.20;;;;;;4999945;28;20057;-74
2021/01/10 07:29:42;;;;;;;37.40;17.60;;;51.40;2227.20;;;;;;5000728;28;20100;-74
2021/01/10 07:32:10;;;;;;;33.10;17.20;;;51.40;2227.20;;;;;;4999991;28;20066;-73
2021/01/10 07:34:45;;;;;;;36.85;18.95;;;51.40;2227.20;;;;;;5000318;28;20038;-73
2021/01/10 07:37:26;;;;;;;35.65;18.45;;;51.40;2227.20;;;;;;5000338;28;20123;-73
2021/01/10 07:40:00;;;;;;;37.00;17.85;;;51.30;2227.20;;;;;;4999792;28;20332;-73
2021/01/10 07:42:31;;;;;;;37.15;17.20;;;51.20;2227.20;;;;;;4999547;28;20026;-73
2021/01/10 07:44:59;;;;;;;39.65;17.33;;;51.20;2227.20;;;;;;5001901;28;20030;-73
2021/01/10 07:47:34;;;;;;;34.28;16.65;;;51.20;2227.20;;;;;;4999587;28;20105;-73
2021/01/10 07:50:10;;;;;;;37.47;17.15;;;51.20;2227.20;;;;;;4999877;28;20200;-74
2021/01/10 07:52:42;;;;;;;35.88;18.23;;;51.20;2227.20;;;;;;5019799;28;20038;-74
2021/01/10 07:55:19;;;;;;;38.20;18.85;;;51.40;2227.20;;;;;;5019819;28;20033;-73
2021/01/10 07:57:52;;;;;;;44.90;18.90;;;51.40;2227.20;;;;;;5019825;28;20032;-73
2021/01/10 08:00:34;;;;;;;36.95;18.58;;;51.60;2227.20;;;;;;5019439;28;20057;-73
2021/01/10 08:03:06;;;;;;;45.15;18.38;;;51.70;2227.20;;;;;;5019358;28;20034;-75
2021/01/10 08:05:36;;;;;;;36.67;17.60;;;51.70;2227.20;;;;;;5018869;28;20026;-74
2021/01/10 08:08:13;;;;;;;34.50;17.60;;;51.80;2227.20;;;;;;5018769;28;20061;-75
2021/01/10 08:10:53;;;;;;;36.17;18.10;;;51.90;2227.20;;;;;;5019300;28;20486;-73
2021/01/10 08:13:31;;;;;;;37.78;18.05;;;52.00;2227.20;;;;;;5011985;28;20057;-73
2021/01/10 08:16:01;;;;;;;34.10;17.08;;;51.90;2227.20;;;;;;5000017;28;20035;-73
2021/01/10 08:18:33;;;;;;;34.13;16.52;;;52.00;2227.20;;;;;;4999778;28;20031;-74
2021/01/10 08:21:00;;;;;;;41.35;17.75;;;52.00;2227.20;;;;;;4999319;28;20034;-74
2021/01/10 08:23:26;;;;;;;33.30;16.45;;;51.90;2227.20;;;;;;4999662;28;20129;-73
2021/01/10 08:26:01;;;;;;;37.13;18.10;;;51.80;2227.20;;;;;;4999616;28;20392;-75
2021/01/10 08:28:27;;;;;;;32.88;17.45;;;51.80;2227.20;;;;;;4999385;28;20034;-75
2021/01/10 08:30:59;;;;;;;35.03;18.08;;;51.90;2227.20;;;;;;5000698;28;20030;-75
2021/01/10 08:33:25;;;;;;;31.42;17.05;;;52.10;2227.20;;;;;;5018576;28;20026;-75
2021/01/10 08:35:51;;;;;;;29.63;15.00;;;52.10;2227.20;;;;;;5018499;28;20116;-74
2021/01/10 08:38:17;;;;;;;31.98;16.77;;;52.10;2227.20;;;;;;5029182;28;20032;-74
2021/01/10 08:40:42;;;;;;;28.98;16.67;;;52.00;2227.20;;;;;;5038694;28;20060;-74
2021/01/10 08:43:08;;;;;;;34.90;17.33;;;52.10;2227.20;;;;;;5037721;28;20025;-73
2021/01/10 08:45:34;;;;;;;28.17;14.82;;;76.80;2227.20;;;;;;5037987;28;20408;-74
2021/01/10 08:48:10;;;;;;;29.70;16.10;;;76.80;2227.20;;;;;;5037728;28;20021;-77
2021/01/10 08:50:40;;;;;;;29.02;15.85;;;76.90;2227.20;;;;;;5023792;28;20029;-74
2021/01/10 08:53:09;;;;;;;31.15;16.45;;;76.90;2227.20;;;;;;5018130;28;20175;-75
2021/01/10 08:55:41;;;;;;;26.95;14.50;;;76.80;2227.20;;;;;;5016448;28;20424;-76
2021/01/10 08:58:09;;;;;;;29.00;15.60;;;76.80;2227.20;;;;;;5013484;28;20498;-74
2021/01/10 09:00:44;;;;;;;30.30;15.23;;;76.80;2227.20;;;;;;5015068;28;20018;-73
2021/01/10 09:03:17;;;;;;;32.63;16.75;;;76.80;2227.20;;;;;;5013660;28;20435;-75
2021/01/10 09:05:45;;;;;;;35.78;17.30;;;52.10;2227.20;;;;;;5015310;28;20054;-75
2021/01/10 09:08:22;;;;;;;33.97;17.73;;;76.80;2227.20;;;;;;5016906;28;20112;-75
2021/01/10 09:10:58;;;;;;;33.35;16.95;;;76.80;2227.20;;;;;;5016968;28;20057;-74
2021/01/10 09:13:29;;;;;;;34.28;18.73;;;76.80;2227.20;;;;;;5017111;28;20474;-76
2021/01/10 09:15:58;;;;;;;37.38;19.63;;;76.90;2227.20;;;;;;5016758;28;20180;-74
2021/01/10 09:18:28;;;;;;;41.38;21.00;;;77.00;2227.20;;;;;;4983110;28;20077;-74
2021/01/10 09:21:08;;;;;;;47.95;22.75;;;77.20;2227.20;;;;;;5017706;28;20040;-75
2021/01/10 09:23:58;;;;;;;47.83;24.10;;;77.40;2227.20;;;;;;4992330;28;20033;-76
2021/01/10 09:26:33;;;;;;;48.90;22.63;;;77.30;2227.20;;;;;;5006630;28;20021;-75
2021/01/10 09:29:02;;;;;;;43.83;21.70;;;77.30;2227.20;;;;;;5007388;28;20329;-73
2021/01/10 09:32:01;;;;;;;51.70;23.17;;;77.40;2227.20;;;;;;5006282;28;20018;-73
2021/01/10 09:34:27;;;;;;;72.15;31.25;;;77.60;2227.20;;;;;;4935360;29;20071;-77
2021/01/10 09:37:04;;;;;;;63.72;28.83;;;77.60;2227.20;;;;;;4937331;29;20374;-80
2021/01/10 09:39:40;;;;;;;54.00;25.27;;;77.60;2227.20;;;;;;4935638;29;20024;-78
2021/01/10 09:42:06;;;;;;;41.10;19.48;;;77.40;2227.20;;;;;;4917830;29;20063;-77
2021/01/10 09:44:32;;;;;;;35.15;17.45;;;77.10;2227.20;;;;;;4937458;29;20067;-79
2021/01/10 09:46:59;;;;;;;53.30;18.02;;;76.80;2227.20;;;;;;4937085;29;20031;-78
2021/01/10 09:49:34;;;;;;;66.60;20.35;;;76.80;2227.20;;;;;;4937224;29;20024;-77
2021/01/10 09:52:10;;;;;;;79.68;19.98;;;52.10;2227.20;;;;;;4937043;29;20390;-77
2021/01/10 09:54:36;;;;;;;59.13;21.42;;;52.10;2227.20;;;;;;4937400;29;20130;-76
2021/01/10 09:57:10;;;;;;;85.03;22.10;;;51.90;2227.20;;;;;;4936883;29;20067;-79
2021/01/10 09:59:54;;;;;;;67.82;21.38;;;52.00;2227.20;;;;;;4936825;29;20116;-77
2021/01/10 10:02:36;;;;;;;66.90;19.52;;;52.00;2227.20;;;;;;4937978;29;20087;-75
2021/01/10 10:05:28;;;;;;;57.70;22.13;;;51.90;2227.20;;;;;;4937962;29;20034;-76
2021/01/10 10:08:05;;;;;;;46.83;19.27;;;51.90;2227.20;;;;;;4935562;29;20111;-74
2021/01/10 10:10:32;;;;;;;47.70;22.27;;;51.80;2227.20;;;;;;4983449;28;20062;-75
2021/01/10 10:13:01;;;;;;;52.25;23.55;;;51.70;2227.20;;;;;;5005770;28;20105;-76
2021/01/10 10:15:43;;;;;;;48.78;21.92;;;51.70;2227.20;;;;;;5001221;28;20037;-75
2021/01/10 10:18:16;;;;;;;44.00;21.08;;;51.60;2227.20;;;;;;4997927;28;20043;-75
2021/01/10 10:20:41;;;;;;;45.38;21.52;;;51.60;2227.20;;;;;;4997022;28;20026;-75
2021/01/10 10:23:12;;;;;;;45.70;21.40;;;51.60;2227.20;;;;;;4997331;28;20077;-75
2021/01/10 10:25:39;;;;;;;48.63;22.63;;;51.60;2227.20;;;;;;4997341;28;20109;-75
2021/01/10 10:28:05;;;;;;;48.03;22.80;;;51.80;2227.20;;;;;;5001156;28;20109;-76
2021/01/10 10:30:32;;;;;;;49.22;23.30;;;51.70;2227.20;;;;;;5002448;28;20026;-75
2021/01/10 10:32:58;;;;;;;50.70;22.85;;;51.70;2227.20;;;;;;5006692;28;20064;-75
2021/01/10 10:35:24;;;;;;;63.60;27.15;;;51.70;2227.20;;;;;;5016883;28;20041;-74
2021/01/10 10:37:51;;;;;;;52.10;24.90;;;51.70;2227.20;;;;;;5012129;28;20017;-73
2021/01/10 10:40:17;;;;;;;51.20;25.05;;;51.70;2227.20;;;;;;5015379;28;20222;-74
2021/01/10 10:42:43;;;;;;;43.35;23.10;;;51.80;2227.20;;;;;;5016356;28;20026;-72
2021/01/10 10:45:10;;;;;;;49.25;21.73;;;51.80;2227.20;;;;;;5017080;28;20030;-75
2021/01/10 10:47:36;;;;;;;49.03;21.90;;;51.80;2227.20;;;;;;5009799;28;20034;-75
2021/01/10 10:50:04;;;;;;;46.08;21.52;;;51.80;2227.20;;;;;;4996961;28;20026;-74
2021/01/10 10:52:29;;;;;;;46.67;21.20;;;51.70;2227.20;;;;;;5000538;28;20030;-75
2021/01/10 10:54:55;;;;;;;49.85;21.85;;;51.80;2227.20;;;;;;4996622;28;20038;-74
2021/01/10 10:57:21;;;;;;;43.17;21.50;;;51.80;2227.20;;;;;;4999355;28;20149;-73
2021/01/10 10:59:47;;;;;;;40.03;18.50;;;51.80;2227.20;;;;;;4997179;28;20113;-73
2021/01/10 11:02:12;;;;;;;39.85;19.38;;;51.80;2227.20;;;;;;4996614;28;20552;-72
2021/01/10 11:04:45;;;;;;;40.30;19.60;;;51.80;2227.20;;;;;;4997121;28;20089;-73
2021/01/10 11:07:11;;;;;;;36.78;19.33;;;51.90;2227.20;;;;;;4999859;28;20093;-72
2021/01/10 11:09:37;;;;;;;34.75;18.42;;;51.80;2227.20;;;;;;5007153;28;20026;-72
2021/01/10 11:12:03;;;;;;;40.50;22.33;;;51.90;2227.20;;;;;;5005654;28;20029;-74
2021/01/10 11:14:30;;;;;;;38.17;17.88;;;52.00;2227.20;;;;;;5004891;28;20038;-74
2021/01/10 11:16:55;;;;;;;35.92;18.02;;;76.80;2227.20;;;;;;5006630;28;20301;-73
2021/01/10 11:19:21;;;;;;;40.28;19.88;;;77.00;2227.20;;;;;;5008958;28;20027;-73
2021/01/10 11:21:52;;;;;;;42.63;22.05;;;77.10;2227.20;;;;;;5007855;28;20025;-73
2021/01/10 11:24:18;;;;;;;40.90;20.77;;;77.40;2227.20;;;;;;4994276;28;20068;-73
2021/01/10 11:26:46;;;;;;;47.08;24.33;;;77.60;2227.20;;;;;;5007826;28;20356;-73
2021/01/10 11:29:13;;;;;;;51.58;26.17;;;77.30;2227.20;;;;;;5009432;28;20080;-74
2021/01/10 11:31:40;;;;;;;52.22;25.52;;;77.50;2227.20;;;;;;5008999;28;20044;-75
2021/01/10 11:34:09;;;;;;;48.85;24.38;;;77.10;2227.20;;;;;;5004578;28;20493;-73
2021/01/10 11:36:36;;;;;;;39.80;21.15;;;77.20;2227.20;;;;;;5008567;28;20030;-74
2021/01/10 11:39:04;;;;;;;36.45;19.80;;;77.20;2227.20;;;;;;5005078;28;20033;-75
2021/01/10 11:41:31;;;;;;;36.40;19.27;;;77.20;2227.20;;;;;;4999269;28;20026;-77
2021/01/10 11:44:06;;;;;;;32.55;17.88;;;77.20;2227.20;;;;;;5007765;28;20021;-74
2021/01/10 11:46:34;;;;;;;32.75;16.15;;;77.20;2227.20;;;;;;5006617;28;20343;-76
2021/01/10 11:49:07;;;;;;;31.73;17.10;;;77.30;2227.20;;;;;;5007016;28;20021;-73
2021/01/10 11:51:32;;;;;;;30.95;16.75;;;77.30;2227.20;;;;;;5005226;28;20431;-74
2021/01/10 11:53:58;;;;;;;31.40;17.00;;;77.40;2227.20;;;;;;5003203;28;20034;-78
2021/01/10 11:56:24;;;;;;;29.90;15.07;;;77.40;2227.20;;;;;;5014601;28;20061;-74
2021/01/10 11:58:50;;;;;;;28.95;16.42;;;77.40;2227.20;;;;;;5017422;28;20119;-76
2021/01/10 12:01:15;;;;;;;30.95;16.40;;;77.40;2227.20;;;;;;5017913;28;20030;-74
2021/01/10 12:03:43;;;;;;;32.83;17.00;;;77.20;2227.20;;;;;;5017993;28;20026;-77
2021/01/10 12:06:09;;;;;;;30.42;15.80;;;77.10;2227.20;;;;;;5014511;28;20438;-76
2021/01/10 12:08:35;;;;;;;28.48;14.77;;;77.10;2227.20;;;;;;5009955;28;20108;-76
2021/01/10 12:11:01;;;;;;;30.20;15.75;;;77.10;2227.20;;;;;;5000054;28;20116;-73
2021/01/10 12:13:27;;;;;;;32.53;17.23;;;77.10;2227.20;;;;;;5007701;28;20124;-74
2021/01/10 12:15:53;;;;;;;34.25;18.08;;;77.00;2227.20;;;;;;5001892;28;20439;-72
2021/01/10 12:18:19;;;;;;;36.70;18.08;;;77.00;2227.20;;;;;;5018293;28;20104;-72
2021/01/10 12:20:47;;;;;;;30.92;16.85;;;76.80;2227.20;;;;;;5009677;28;20347;-73